createdAt,value
2023-03-31T00:04:53.584Z,1.27
2023-03-31T00:10:18.387Z,0.90
2023-03-31T00:15:39.489Z,1.15
2023-03-31T00:21:14.514Z,1.30
2023-03-31T00:26:35.578Z,0.80
2023-03-31T00:31:57.353Z,1.00
2023-03-31T00:37:18.862Z,0.95
2023-03-31T00:42:43.536Z,1.10
2023-03-31T00:48:11.953Z,0.88
2023-03-31T00:53:33.624Z,0.80
2023-03-31T00:58:58.056Z,0.77
2023-03-31T01:09:47.418Z,0.70
2023-03-31T01:15:09.134Z,1.27
2023-03-31T01:20:45.463Z,1.38
2023-03-31T01:26:24.764Z,1.20
2023-03-31T01:31:52.551Z,1.30
2023-03-31T01:37:23.331Z,1.17
2023-03-31T01:42:53.798Z,1.63
2023-03-31T01:48:18.669Z,1.25
2023-03-31T01:53:55.662Z,1.58
2023-03-31T01:59:31.217Z,1.27
2023-03-31T02:05:05.542Z,1.10
2023-03-31T02:15:54.824Z,1.10
2023-03-31T02:21:16.537Z,1.17
2023-03-31T02:26:40.316Z,1.10
2023-03-31T02:32:04.202Z,0.90
2023-03-31T02:37:25.909Z,0.90
2023-03-31T02:42:46.647Z,1.33
2023-03-31T02:48:08.737Z,1.00
2023-03-31T02:53:35.416Z,0.80
2023-03-31T02:59:33.808Z,0.77
2023-03-31T03:05:13.635Z,0.93
2023-03-31T03:10:56.437Z,1.00
2023-03-31T03:16:27.539Z,0.68
2023-03-31T03:21:48.543Z,1.27
2023-03-31T03:27:09.711Z,0.80
2023-03-31T03:32:31.131Z,0.90
2023-03-31T03:37:52.210Z,0.73
2023-03-31T03:43:12.826Z,0.70
2023-03-31T03:48:33.981Z,0.95
2023-03-31T03:53:54.686Z,0.77
2023-03-31T03:59:15.749Z,0.80
2023-03-31T04:04:36.801Z,1.10
2023-03-31T04:09:57.638Z,0.77
2023-03-31T04:15:18.367Z,0.80
2023-03-31T04:20:39.118Z,0.82
2023-03-31T04:25:59.992Z,0.68
2023-03-31T04:31:25.502Z,0.85
2023-03-31T04:36:50.617Z,0.80
2023-03-31T04:42:11.727Z,0.90
2023-03-31T04:47:32.375Z,1.27
2023-03-31T04:52:53.022Z,1.10
2023-03-31T04:58:14.193Z,0.93
2023-03-31T05:03:34.931Z,1.00
2023-03-31T05:08:55.688Z,0.77
2023-03-31T05:14:16.648Z,1.23
2023-03-31T05:19:37.576Z,0.90
2023-03-31T05:24:58.261Z,1.33
2023-03-31T05:30:19.132Z,1.08
2023-03-31T05:35:39.789Z,1.10
2023-03-31T05:41:00.671Z,1.00
2023-03-31T05:46:21.441Z,1.23
2023-03-31T05:51:42.511Z,1.10
2023-03-31T05:57:03.511Z,1.17
2023-03-31T06:02:24.951Z,1.00
2023-03-31T06:07:45.888Z,1.27
2023-03-31T06:13:08.056Z,1.02
2023-03-31T06:18:29.879Z,0.63
2023-03-31T06:23:55.070Z,0.90
2023-03-31T06:29:15.674Z,1.05
2023-03-31T06:34:36.951Z,1.02
2023-03-31T06:39:58.932Z,1.30
2023-03-31T06:45:19.866Z,1.57
2023-03-31T06:50:46.305Z,1.00
2023-03-31T06:56:07.737Z,1.05
2023-03-31T07:01:28.919Z,0.77
2023-03-31T07:06:49.452Z,0.88
2023-03-31T07:12:10.466Z,0.80
2023-03-31T07:17:31.165Z,0.98
2023-03-31T07:22:51.839Z,1.33
2023-03-31T07:28:12.468Z,0.70
2023-03-31T07:33:33.151Z,1.42
2023-03-31T07:38:54.018Z,0.98
2023-03-31T07:44:16.039Z,1.10
2023-03-31T07:49:36.707Z,1.27
2023-03-31T07:54:58.080Z,1.30
2023-03-31T08:00:19.253Z,1.15
2023-03-31T08:05:40.125Z,1.40
2023-03-31T08:11:00.982Z,2.70
2023-03-31T08:16:22.445Z,1.83
2023-03-31T08:21:43.215Z,1.10
2023-03-31T08:27:03.862Z,1.00
2023-03-31T08:32:24.894Z,1.13
2023-03-31T08:37:46.041Z,1.20
2023-03-31T08:43:10.667Z,1.02
2023-03-31T08:48:45.149Z,1.05
2023-03-31T08:54:15.114Z,1.40
2023-03-31T08:59:37.716Z,1.35
2023-03-31T09:11:23.881Z,2.00
2023-03-31T09:42:00.683Z,1.50
2023-03-31T09:47:44.779Z,1.80
2023-03-31T09:58:26.360Z,1.80
2023-03-31T10:04:15.723Z,1.55
2023-03-31T10:09:36.465Z,1.50
2023-03-31T10:15:20.259Z,1.92
2023-03-31T10:20:44.891Z,1.75
2023-03-31T10:26:06.139Z,1.55
2023-03-31T10:31:36.684Z,1.85
2023-03-31T10:37:04.717Z,2.33
2023-03-31T10:43:20.827Z,1.83
2023-03-31T11:14:27.136Z,2.15
2023-03-31T11:20:36.621Z,2.25
2023-03-31T11:26:03.511Z,2.28
2023-03-31T11:32:17.010Z,2.92
2023-03-31T11:45:43.874Z,0.70
2023-03-31T11:51:44.537Z,0.60
2023-03-31T11:57:20.919Z,0.40
2023-03-31T12:11:01.686Z,0.38
2023-03-31T12:16:41.469Z,0.30
2023-03-31T12:22:17.024Z,0.30
2023-03-31T12:28:39.086Z,0.38
2023-03-31T12:34:34.791Z,0.45
2023-03-31T12:49:21.422Z,0.60
2023-03-31T13:18:52.488Z,0.50
2023-03-31T13:24:13.967Z,0.60
2023-03-31T13:29:44.717Z,0.57
2023-03-31T13:35:07.877Z,0.85
2023-03-31T13:41:16.268Z,0.40
2023-03-31T13:46:56.205Z,0.68
2023-03-31T13:52:25.427Z,0.70
2023-03-31T13:58:34.482Z,0.95
2023-03-31T14:04:36.508Z,0.30
2023-03-31T14:34:27.164Z,0.40
2023-03-31T14:39:53.266Z,0.50
2023-03-31T14:45:18.849Z,0.70
2023-03-31T15:10:08.188Z,0.50
2023-03-31T15:28:39.615Z,0.50
2023-03-31T15:34:00.792Z,0.30
2023-03-31T15:39:25.118Z,0.65
2023-03-31T15:45:56.223Z,0.57
2023-03-31T15:51:18.021Z,0.40
2023-03-31T15:56:45.983Z,0.50
2023-03-31T16:02:11.097Z,0.80
2023-03-31T16:08:18.770Z,0.90
2023-03-31T16:20:19.540Z,0.80
2023-03-31T16:33:55.354Z,0.80
2023-03-31T16:52:22.716Z,1.23
2023-03-31T16:57:44.229Z,1.10
2023-03-31T17:03:18.870Z,0.90
2023-03-31T17:08:40.134Z,0.80
2023-03-31T17:14:02.329Z,0.98
2023-03-31T17:19:23.158Z,1.00
2023-03-31T17:31:35.204Z,0.95
2023-03-31T17:36:57.798Z,1.40
2023-03-31T17:42:20.895Z,0.90
2023-03-31T17:47:44.324Z,0.77
2023-03-31T17:53:09.334Z,0.60
2023-03-31T18:11:44.357Z,1.42
2023-03-31T18:17:04.970Z,1.58
2023-03-31T18:22:26.714Z,1.67
2023-03-31T18:27:49.157Z,2.17
2023-03-31T18:33:11.055Z,1.05
2023-03-31T18:38:32.674Z,0.98
2023-03-31T18:43:53.449Z,1.45
2023-03-31T18:49:15.506Z,1.13
2023-03-31T18:54:36.666Z,3.90
2023-03-31T18:59:57.847Z,2.08
2023-03-31T19:05:18.744Z,1.45
2023-03-31T19:10:39.347Z,1.40
2023-03-31T19:16:00.018Z,1.50
2023-03-31T19:21:21.051Z,1.52
2023-03-31T19:26:42.056Z,1.17
2023-03-31T19:32:02.776Z,1.13
2023-03-31T19:37:24.236Z,1.30
2023-03-31T19:42:47.974Z,1.05
2023-03-31T19:48:08.758Z,1.58
2023-03-31T19:53:52.349Z,2.30
2023-03-31T19:59:13.419Z,2.10
2023-03-31T20:04:34.443Z,1.33
2023-03-31T20:09:55.625Z,1.67
2023-03-31T20:15:17.054Z,1.85
2023-03-31T20:20:38.331Z,1.92
2023-03-31T20:26:00.964Z,2.05
2023-03-31T20:31:23.799Z,2.08
2023-03-31T20:36:46.467Z,1.42
2023-03-31T20:42:17.467Z,1.73
2023-03-31T20:48:06.362Z,1.30
2023-03-31T21:06:12.189Z,1.50
2023-03-31T21:11:34.176Z,1.60
2023-03-31T21:16:55.744Z,1.48
2023-03-31T21:22:18.149Z,1.88
2023-03-31T21:27:39.606Z,1.30
2023-03-31T21:33:01.219Z,1.60
2023-03-31T21:38:22.875Z,1.90
2023-03-31T21:43:44.287Z,1.50
2023-03-31T21:49:06.477Z,1.40
2023-03-31T21:54:27.908Z,1.58
2023-03-31T21:59:49.604Z,1.80
2023-03-31T22:05:11.200Z,1.83
2023-03-31T22:10:33.085Z,1.42
2023-03-31T22:15:54.715Z,0.85
2023-03-31T22:21:21.751Z,0.70
2023-03-31T22:26:43.349Z,0.75
2023-03-31T22:32:05.044Z,0.77
2023-03-31T22:37:26.413Z,0.43
2023-03-31T22:42:48.520Z,0.35
2023-03-31T22:48:10.232Z,0.50
2023-03-31T22:53:32.495Z,0.45
2023-03-31T22:58:57.007Z,0.50
2023-03-31T23:04:18.715Z,0.40
2023-03-31T23:09:40.433Z,0.47
2023-03-31T23:15:02.389Z,0.20
2023-03-31T23:20:24.715Z,0.38
2023-03-31T23:25:46.029Z,0.50
2023-03-31T23:31:07.626Z,0.30
2023-03-31T23:36:28.961Z,0.40
2023-03-31T23:41:51.262Z,0.50
2023-03-31T23:47:12.669Z,0.22
2023-03-31T23:52:35.978Z,0.32
2023-03-31T23:57:57.569Z,0.28
